Time;durP1;ratioP1;P1;durP2;ratioP2;P2;SDS_P1;SDS_P2;PMS_P1;PMS_P2;Temp;Humidity;BMP_temperature;BMP_pressure;BME280_temperature;BME280_humidity;BME280_pressure;Samples;Min_cycle;Max_cycle;Signal;HPM_P1;HPM_P2
2021/11/16 00:00:33;;;;;;;97.15;49.88;;;9.20;99.90;;;;;;5041903;28;20398;-76
2021/11/16 00:02:59;;;;;;;95.85;50.00;;;9.20;99.90;;;;;;5047965;28;20034;-76
2021/11/16 00:05:26;;;;;;;90.13;46.50;;;9.20;99.90;;;;;;5047213;28;20022;-76
2021/11/16 00:07:52;;;;;;;95.30;47.33;;;9.20;99.90;;;;;;5046035;28;20022;-77
2021/11/16 00:10:19;;;;;;;93.63;46.80;;;9.30;99.90;;;;;;5048118;28;20148;-76
2021/11/16 00:12:45;;;;;;;93.50;46.47;;;9.20;99.90;;;;;;5047618;28;20017;-76
2021/11/16 00:15:11;;;;;;;92.38;46.95;;;9.20;99.90;;;;;;5047817;28;20032;-76
2021/11/16 00:17:37;;;;;;;93.38;47.67;;;9.20;99.90;;;;;;5042357;28;20040;-76
2021/11/16 00:20:09;;;;;;;95.80;47.97;;;9.20;99.90;;;;;;5041796;28;20041;-77
2021/11/16 00:22:35;;;;;;;92.22;45.40;;;9.20;99.90;;;;;;5047532;28;20075;-76
2021/11/16 00:27:29;;;;;;;94.88;46.33;;;9.20;99.90;;;;;;5044980;28;20029;-76
2021/11/16 00:29:55;;;;;;;91.45;46.70;;;9.20;99.90;;;;;;5045913;28;20025;-76
2021/11/16 00:32:21;;;;;;;97.85;49.53;;;9.30;99.90;;;;;;5048183;28;20122;-76
2021/11/16 00:34:46;;;;;;;95.22;50.75;;;9.20;99.90;;;;;;5048695;28;20112;-76
2021/11/16 00:37:13;;;;;;;97.97;50.78;;;9.30;99.90;;;;;;5046727;28;20363;-76
2021/11/16 00:39:39;;;;;;;93.60;47.88;;;9.20;99.90;;;;;;5043971;28;20073;-76
2021/11/16 00:42:05;;;;;;;94.53;49.03;;;9.30;99.90;;;;;;5046348;28;20411;-76
2021/11/16 00:44:30;;;;;;;90.15;45.80;;;9.20;99.90;;;;;;5045020;28;20032;-76
2021/11/16 00:46:56;;;;;;;92.43;46.53;;;9.20;99.90;;;;;;5047550;28;20091;-77
2021/11/16 00:49:22;;;;;;;92.22;46.55;;;9.20;99.90;;;;;;5046743;28;20720;-77
2021/11/16 00:51:48;;;;;;;90.65;46.47;;;9.20;99.90;;;;;;5044945;28;20100;-78
2021/11/16 00:54:14;;;;;;;97.72;46.70;;;9.20;99.90;;;;;;5044034;28;20061;-77
2021/11/16 00:56:39;;;;;;;99.00;46.58;;;9.20;99.90;;;;;;5045007;28;20021;-77
2021/11/16 00:59:05;;;;;;;103.68;46.60;;;9.20;99.90;;;;;;5044139;28;20028;-77
2021/11/16 01:01:31;;;;;;;94.75;45.22;;;9.20;99.90;;;;;;5040952;28;20490;-78
2021/11/16 01:03:57;;;;;;;92.68;45.58;;;9.20;99.90;;;;;;5042645;28;20044;-78
2021/11/16 01:06:22;;;;;;;93.97;46.15;;;9.20;99.90;;;;;;5043684;28;20084;-76
2021/11/16 01:08:48;;;;;;;95.28;47.53;;;9.20;99.90;;;;;;5048010;28;20516;-76
2021/11/16 01:11:14;;;;;;;96.05;47.83;;;9.20;99.90;;;;;;5045219;28;20044;-76
2021/11/16 01:13:40;;;;;;;94.30;47.55;;;9.20;99.90;;;;;;5045155;28;20104;-76
2021/11/16 01:16:05;;;;;;;97.05;49.05;;;9.20;99.90;;;;;;5044518;28;20010;-77
2021/11/16 01:18:31;;;;;;;96.75;48.28;;;9.20;99.90;;;;;;5044837;28;20534;-76
2021/11/16 01:20:57;;;;;;;97.90;48.13;;;9.20;99.90;;;;;;5044806;28;20055;-76
2021/11/16 01:23:24;;;;;;;98.43;48.20;;;9.20;99.90;;;;;;5043954;28;20478;-75
2021/11/16 01:25:50;;;;;;;95.55;45.65;;;9.20;99.90;;;;;;5046637;28;20096;-77
2021/11/16 01:28:23;;;;;;;93.43;46.80;;;9.20;99.90;;;;;;5045137;28;20052;-76
2021/11/16 01:30:51;;;;;;;103.40;46.40;;;9.20;99.90;;;;;;5048744;28;20033;-77
2021/11/16 01:33:21;;;;;;;97.75;45.97;;;9.20;99.90;;;;;;5045995;28;20098;-77
2021/11/16 01:35:48;;;;;;;95.03;43.75;;;9.20;99.90;;;;;;5045560;28;20834;-77
2021/11/16 01:38:19;;;;;;;98.13;48.13;;;9.10;99.90;;;;;;5047547;28;20025;-77
2021/11/16 01:40:46;;;;;;;94.35;46.47;;;9.00;99.90;;;;;;5053962;28;20044;-77
2021/11/16 01:43:13;;;;;;;104.03;48.47;;;9.00;99.90;;;;;;5048021;28;20023;-77
2021/11/16 01:45:40;;;;;;;91.65;45.30;;;9.10;99.90;;;;;;5050116;28;20075;-77
2021/11/16 01:48:08;;;;;;;92.70;45.10;;;9.10;99.90;;;;;;5045233;28;20025;-77
2021/11/16 01:50:34;;;;;;;91.70;46.30;;;9.10;99.90;;;;;;5048293;28;20031;-77
2021/11/16 01:53:01;;;;;;;94.60;46.50;;;9.20;99.90;;;;;;5047514;28;20028;-77
2021/11/16 01:55:26;;;;;;;95.55;46.83;;;9.10;99.90;;;;;;5044722;28;20036;-77
2021/11/16 01:57:54;;;;;;;105.22;49.60;;;9.20;99.90;;;;;;5043968;28;20021;-77
2021/11/16 02:00:25;;;;;;;101.78;47.13;;;9.20;99.90;;;;;;5045287;28;20034;-77
2021/11/16 02:02:52;;;;;;;97.43;48.10;;;9.20;99.90;;;;;;5047656;28;20024;-77
2021/11/16 02:05:18;;;;;;;94.43;47.42;;;9.10;99.90;;;;;;5045093;28;20078;-77
2021/11/16 02:07:46;;;;;;;96.30;46.88;;;9.20;99.90;;;;;;5042340;28;20022;-77
2021/11/16 02:10:12;;;;;;;100.57;48.92;;;9.20;99.90;;;;;;5047335;28;20481;-77
2021/11/16 02:12:38;;;;;;;100.18;48.28;;;9.10;99.90;;;;;;5047779;28;20052;-77
2021/11/16 02:15:09;;;;;;;102.95;47.53;;;9.10;99.90;;;;;;5047239;28;20024;-77
2021/11/16 02:17:36;;;;;;;100.22;47.90;;;9.10;99.90;;;;;;5043545;28;20034;-76
2021/11/16 02:20:03;;;;;;;99.50;47.13;;;9.10;99.90;;;;;;5041828;28;20033;-76
2021/11/16 02:22:30;;;;;;;92.40;45.33;;;9.10;99.90;;;;;;5044149;28;20025;-76
2021/11/16 02:24:56;;;;;;;103.82;47.90;;;9.10;99.90;;;;;;5044234;28;20079;-76
2021/11/16 02:27:22;;;;;;;101.05;49.53;;;9.00;99.90;;;;;;5040673;28;20832;-76
2021/11/16 02:29:47;;;;;;;99.75;47.63;;;9.10;99.90;;;;;;5043451;28;20084;-76
2021/11/16 02:32:13;;;;;;;103.22;49.78;;;9.10;99.90;;;;;;5043223;28;20041;-76
2021/11/16 02:34:39;;;;;;;97.47;48.17;;;9.20;99.90;;;;;;5041152;28;20017;-75
2021/11/16 02:37:05;;;;;;;99.32;46.25;;;9.20;99.90;;;;;;5045037;28;20021;-76
2021/11/16 02:39:30;;;;;;;96.28;46.90;;;9.20;99.90;;;;;;5043512;28;20033;-76
2021/11/16 02:41:56;;;;;;;96.97;46.72;;;9.20;99.90;;;;;;5040501;28;20111;-77
2021/11/16 02:44:23;;;;;;;103.82;48.47;;;9.10;99.90;;;;;;5043715;28;20530;-76
2021/11/16 02:46:51;;;;;;;101.80;48.00;;;9.10;99.90;;;;;;5043165;28;20020;-77
2021/11/16 02:49:17;;;;;;;92.07;46.22;;;9.20;99.90;;;;;;5045119;28;20523;-76
2021/11/16 02:51:43;;;;;;;104.85;48.28;;;9.20;99.90;;;;;;5043586;28;20056;-76
2021/11/16 02:54:15;;;;;;;101.97;47.20;;;9.20;99.90;;;;;;5042342;28;20067;-76
2021/11/16 02:56:42;;;;;;;97.53;45.05;;;9.20;99.90;;;;;;5045910;28;20036;-76
2021/11/16 02:59:08;;;;;;;97.90;47.30;;;9.10;99.90;;;;;;5041842;28;20037;-76
2021/11/16 03:01:34;;;;;;;94.88;44.70;;;9.10;99.90;;;;;;5040120;28;20052;-76
2021/11/16 03:04:00;;;;;;;99.47;45.55;;;9.10;99.90;;;;;;5045013;28;20036;-77
2021/11/16 03:06:26;;;;;;;90.95;44.30;;;9.10;99.90;;;;;;5042436;28;20040;-76
2021/11/16 03:08:52;;;;;;;96.82;45.55;;;9.20;99.90;;;;;;5047163;28;20029;-76
2021/11/16 03:11:18;;;;;;;93.40;43.00;;;9.10;99.90;;;;;;5042266;28;20614;-76
2021/11/16 03:13:44;;;;;;;88.63;42.72;;;9.00;99.90;;;;;;5042734;28;20031;-77
2021/11/16 03:16:15;;;;;;;88.13;43.53;;;9.00;99.90;;;;;;5041998;28;20018;-77
2021/11/16 03:18:43;;;;;;;95.25;44.97;;;8.90;99.90;;;;;;5056214;28;20459;-76
2021/11/16 03:21:12;;;;;;;100.15;47.15;;;9.00;99.90;;;;;;5044231;28;20027;-77
2021/11/16 03:23:38;;;;;;;97.07;44.33;;;9.00;99.90;;;;;;5045190;28;20170;-76
2021/11/16 03:26:04;;;;;;;92.88;44.50;;;9.00;99.90;;;;;;5044322;28;20049;-76
2021/11/16 03:28:32;;;;;;;95.25;46.53;;;9.00;99.90;;;;;;5045143;28;20068;-76
2021/11/16 03:31:20;;;;;;;93.50;44.83;;;9.10;99.90;;;;;;5044316;28;20032;-76
2021/11/16 03:33:47;;;;;;;88.97;42.22;;;9.10;99.90;;;;;;5045315;28;20048;-77
2021/11/16 03:36:14;;;;;;;94.15;43.83;;;9.10;99.90;;;;;;5042823;28;20033;-76
2021/11/16 03:38:41;;;;;;;98.18;43.30;;;9.10;99.90;;;;;;5048341;28;20025;-76
2021/11/16 03:41:07;;;;;;;88.97;42.85;;;9.10;99.90;;;;;;5049391;28;20032;-76
2021/11/16 03:43:34;;;;;;;86.97;43.42;;;9.10;99.90;;;;;;5044167;28;20021;-76
2021/11/16 03:46:00;;;;;;;91.75;45.40;;;9.20;99.90;;;;;;5052338;28;20036;-76
2021/11/16 03:48:27;;;;;;;89.60;42.88;;;9.20;99.90;;;;;;5049486;28;21471;-77
2021/11/16 03:50:54;;;;;;;89.70;44.33;;;9.10;99.90;;;;;;5051418;28;20759;-76
2021/11/16 03:53:20;;;;;;;89.88;43.67;;;9.20;99.90;;;;;;5048344;28;20024;-76
2021/11/16 03:55:46;;;;;;;86.53;40.47;;;9.10;99.90;;;;;;5042926;28;20021;-76
2021/11/16 03:58:17;;;;;;;85.43;40.40;;;9.10;99.90;;;;;;5048217;28;20013;-77
2021/11/16 04:00:49;;;;;;;86.95;42.65;;;9.10;99.90;;;;;;5049226;28;20052;-77
2021/11/16 04:03:17;;;;;;;91.13;42.95;;;9.10;99.90;;;;;;5047631;28;20036;-78
2021/11/16 04:05:43;;;;;;;83.53;41.90;;;9.10;99.90;;;;;;5046847;28;20029;-77
2021/11/16 04:08:10;;;;;;;84.13;43.65;;;9.10;99.90;;;;;;5047200;28;20024;-77
2021/11/16 04:10:36;;;;;;;87.75;40.30;;;9.00;99.90;;;;;;5050189;28;20025;-78
2021/11/16 04:13:03;;;;;;;87.65;40.45;;;9.10;99.90;;;;;;5052462;28;20017;-77
2021/11/16 04:15:31;;;;;;;88.40;39.65;;;9.00;99.90;;;;;;5045287;28;20021;-77
2021/11/16 04:17:57;;;;;;;83.68;40.60;;;9.00;99.90;;;;;;5044343;28;20028;-77
2021/11/16 04:20:32;;;;;;;86.65;43.03;;;9.00;99.90;;;;;;5051404;28;20036;-77
2021/11/16 04:22:59;;;;;;;88.10;41.75;;;9.00;99.90;;;;;;5050495;28;20040;-77
2021/11/16 04:25:26;;;;;;;91.32;41.97;;;9.00;99.90;;;;;;5049399;28;20061;-77
2021/11/16 04:27:52;;;;;;;91.93;42.80;;;9.10;99.90;;;;;;5049034;28;20013;-77
2021/11/16 04:30:20;;;;;;;91.85;41.65;;;9.10;99.90;;;;;;5047460;28;20029;-77
2021/11/16 04:32:46;;;;;;;86.88;40.53;;;9.10;99.90;;;;;;5045454;28;20021;-77
2021/11/16 04:35:14;;;;;;;89.45;41.65;;;9.10;99.90;;;;;;5048183;28;20531;-78
2021/11/16 04:37:42;;;;;;;89.55;43.58;;;9.10;99.90;;;;;;5047253;28;20014;-77
2021/11/16 04:40:14;;;;;;;95.40;44.47;;;9.10;99.90;;;;;;5046939;28;20425;-77
2021/11/16 04:42:40;;;;;;;89.07;43.83;;;9.10;99.90;;;;;;5047796;28;20120;-77
2021/11/16 04:45:10;;;;;;;89.05;43.78;;;9.10;99.90;;;;;;5050034;28;20575;-77
2021/11/16 04:47:51;;;;;;;96.32;42.80;;;9.10;99.90;;;;;;5044723;28;20413;-77
2021/11/16 04:59:28;;;;;;;85.32;40.75;;;9.00;99.90;;;;;;5075694;28;20020;-77
2021/11/16 05:04:06;;;;;;;90.80;43.13;;;9.00;99.90;;;;;;5044970;28;20079;-78
2021/11/16 05:06:32;;;;;;;101.75;47.05;;;9.10;99.90;;;;;;5046066;28;20028;-77
2021/11/16 05:08:58;;;;;;;97.63;45.55;;;9.10;99.90;;;;;;5052511;28;20021;-77
2021/11/16 05:11:25;;;;;;;99.90;46.28;;;9.00;99.90;;;;;;5048152;28;20115;-77
2021/11/16 05:13:52;;;;;;;94.40;43.97;;;9.00;99.90;;;;;;5043749;28;20026;-77
2021/11/16 05:16:21;;;;;;;87.78;42.38;;;9.00;99.90;;;;;;5045235;28;20055;-77
2021/11/16 05:18:48;;;;;;;99.03;43.60;;;9.00;99.90;;;;;;5039151;28;20397;-77
2021/11/16 05:21:15;;;;;;;100.63;45.15;;;9.00;99.90;;;;;;5044265;28;20029;-77
2021/11/16 05:23:58;;;;;;;93.47;45.63;;;9.00;99.90;;;;;;5042966;28;20389;-78
2021/11/16 05:26:27;;;;;;;100.70;43.70;;;9.10;99.90;;;;;;5044735;28;20032;-77
2021/11/16 05:28:54;;;;;;;98.05;44.78;;;9.00;99.90;;;;;;4999124;28;1335719;-76
2021/11/16 05:31:21;;;;;;;96.22;44.20;;;9.00;99.90;;;;;;5042751;28;20026;-78
2021/11/16 05:33:48;;;;;;;97.75;44.30;;;8.90;99.90;;;;;;5042930;28;20252;-77
2021/11/16 05:36:18;;;;;;;95.10;43.83;;;9.00;99.90;;;;;;5043826;28;20087;-77
2021/11/16 05:38:46;;;;;;;101.78;43.63;;;8.90;99.90;;;;;;5044546;28;20401;-77
2021/11/16 05:41:13;;;;;;;100.63;44.53;;;8.90;99.90;;;;;;5042823;28;20017;-78
2021/11/16 05:43:39;;;;;;;101.32;44.42;;;9.00;99.90;;;;;;5047574;28;20421;-78
2021/11/16 05:46:04;;;;;;;100.40;44.38;;;9.00;99.90;;;;;;5046051;28;20156;-77
2021/11/16 05:48:40;;;;;;;106.47;44.05;;;9.00;99.90;;;;;;5049833;28;20126;-77
2021/11/16 05:51:06;;;;;;;94.22;42.50;;;9.00;99.90;;;;;;5044186;28;20123;-77
2021/11/16 05:53:34;;;;;;;102.13;45.97;;;9.00;99.90;;;;;;5044144;28;20014;-77
2021/11/16 05:56:00;;;;;;;106.30;45.67;;;9.00;99.90;;;;;;5044445;28;20022;-76
2021/11/16 05:58:26;;;;;;;105.95;45.72;;;9.00;99.90;;;;;;5043645;28;20025;-78
2021/11/16 06:00:53;;;;;;;99.30;46.22;;;9.00;99.90;;;;;;5043811;28;20573;-77
2021/11/16 06:03:19;;;;;;;110.70;46.40;;;9.00;99.90;;;;;;5044167;28;20024;-77
2021/11/16 06:05:45;;;;;;;104.93;45.60;;;9.00;99.90;;;;;;5042261;28;20025;-77
2021/11/16 06:08:25;;;;;;;108.25;46.22;;;9.00;99.90;;;;;;5044599;28;20024;-81
2021/11/16 06:10:52;;;;;;;104.05;46.42;;;9.00;99.90;;;;;;5044697;28;20028;-77
2021/11/16 06:13:18;;;;;;;105.78;46.15;;;9.00;99.90;;;;;;5041867;28;20025;-78
2021/11/16 06:15:44;;;;;;;107.95;45.05;;;9.10;99.90;;;;;;5044224;28;20396;-78
2021/11/16 06:18:10;;;;;;;102.65;43.13;;;9.10;99.90;;;;;;5044940;28;20013;-77
2021/11/16 06:20:39;;;;;;;119.53;47.28;;;9.00;99.90;;;;;;5042734;28;20458;-77
2021/11/16 06:23:05;;;;;;;119.53;47.65;;;9.00;99.90;;;;;;5043637;28;20017;-77
2021/11/16 06:25:31;;;;;;;105.32;45.20;;;8.90;99.90;;;;;;5044356;28;20474;-77
2021/11/16 06:27:57;;;;;;;97.20;44.00;;;9.00;99.90;;;;;;5044415;28;20032;-78
2021/11/16 06:30:23;;;;;;;112.45;47.80;;;9.00;99.90;;;;;;5044015;28;20075;-78
2021/11/16 06:32:49;;;;;;;109.63;46.28;;;9.00;99.90;;;;;;5044174;28;20540;-78
2021/11/16 06:35:16;;;;;;;108.00;44.15;;;9.00;99.90;;;;;;5043278;28;20787;-78
2021/11/16 06:37:43;;;;;;;108.40;47.13;;;9.00;99.90;;;;;;5042570;28;20014;-78
2021/11/16 06:40:09;;;;;;;106.00;44.88;;;9.00;99.90;;;;;;5043271;28;20033;-78
2021/11/16 06:42:36;;;;;;;102.32;45.00;;;9.00;99.90;;;;;;5045581;28;20025;-80
2021/11/16 06:45:03;;;;;;;101.47;43.40;;;9.00;99.90;;;;;;5044577;28;20040;-77
2021/11/16 06:47:28;;;;;;;116.18;46.53;;;9.00;99.90;;;;;;5042429;28;20017;-77
2021/11/16 06:49:54;;;;;;;110.13;45.25;;;9.00;99.90;;;;;;5043824;28;20025;-77
2021/11/16 06:52:20;;;;;;;112.20;46.47;;;9.00;99.90;;;;;;5050413;28;20472;-78
2021/11/16 06:54:46;;;;;;;111.03;46.70;;;9.00;99.90;;;;;;5045787;28;20026;-78
2021/11/16 06:57:12;;;;;;;111.78;46.38;;;9.00;99.90;;;;;;5045631;28;20013;-79
2021/11/16 06:59:39;;;;;;;112.82;48.00;;;9.00;99.90;;;;;;5045845;28;20060;-78
2021/11/16 07:02:06;;;;;;;120.50;48.50;;;9.00;99.90;;;;;;5044416;28;20499;-78
2021/11/16 07:04:39;;;;;;;133.00;48.10;;;9.00;99.90;;;;;;5065621;28;20107;-77
2021/11/16 07:07:06;;;;;;;136.18;48.83;;;9.00;99.90;;;;;;5055621;28;20044;-78
2021/11/16 07:09:36;;;;;;;104.97;45.97;;;8.90;99.90;;;;;;5059241;28;20021;-77
2021/11/16 07:12:10;;;;;;;114.15;46.10;;;8.90;99.90;;;;;;5057802;28;20510;-78
2021/11/16 07:14:38;;;;;;;126.18;48.38;;;9.00;99.90;;;;;;5055558;28;20496;-78
2021/11/16 07:17:11;;;;;;;121.43;47.95;;;8.90;99.90;;;;;;5058528;28;20074;-78
2021/11/16 07:19:47;;;;;;;112.07;45.67;;;8.90;99.90;;;;;;5063342;28;20051;-78
2021/11/16 07:22:28;;;;;;;111.10;45.75;;;9.00;99.90;;;;;;5066180;28;20017;-76
2021/11/16 07:24:56;;;;;;;125.93;50.08;;;9.00;99.90;;;;;;5055017;28;20021;-77
2021/11/16 07:27:31;;;;;;;137.20;50.28;;;9.00;99.90;;;;;;5045797;28;20070;-77
2021/11/16 07:29:58;;;;;;;113.38;46.70;;;9.00;99.90;;;;;;5047020;28;20398;-76
2021/11/16 07:32:27;;;;;;;110.35;45.40;;;9.00;99.90;;;;;;5061876;28;20031;-76
2021/11/16 07:35:03;;;;;;;118.25;48.60;;;9.10;99.90;;;;;;5054916;28;20020;-76
2021/11/16 07:37:32;;;;;;;118.38;45.63;;;9.00;99.90;;;;;;5060062;28;20495;-76
2021/11/16 07:40:10;;;;;;;115.25;46.72;;;9.00;99.90;;;;;;5060338;28;20040;-76
2021/11/16 07:42:58;;;;;;;123.80;49.95;;;9.00;99.90;;;;;;5068442;28;20024;-77
2021/11/16 07:45:34;;;;;;;131.10;49.15;;;9.00;99.90;;;;;;5050575;28;20396;-77
2021/11/16 07:48:05;;;;;;;125.72;47.78;;;9.00;99.90;;;;;;5064369;28;20055;-77
2021/11/16 07:50:31;;;;;;;121.60;46.78;;;9.00;99.90;;;;;;5048873;28;20037;-76
2021/11/16 07:53:10;;;;;;;122.97;47.67;;;9.00;99.90;;;;;;5068346;28;20528;-77
2021/11/16 07:55:36;;;;;;;117.03;47.40;;;9.00;99.90;;;;;;5060925;28;20433;-77
2021/11/16 07:58:07;;;;;;;133.80;50.63;;;9.00;99.90;;;;;;5058282;28;20021;-77
2021/11/16 08:00:35;;;;;;;117.45;46.15;;;9.00;99.90;;;;;;5065771;28;20044;-77
2021/11/16 08:03:16;;;;;;;118.97;46.58;;;9.00;99.90;;;;;;5055009;28;20103;-78
2021/11/16 08:11:00;;;;;;;130.85;50.50;;;9.00;99.90;;;;;;5049512;28;20026;-78
2021/11/16 08:13:30;;;;;;;158.00;51.92;;;9.00;99.90;;;;;;5064451;28;20255;-82
2021/11/16 08:16:12;;;;;;;141.85;51.35;;;9.00;99.90;;;;;;5054658;28;20056;-77
2021/11/16 08:18:49;;;;;;;132.80;49.67;;;9.00;99.90;;;;;;5068079;28;20386;-77
2021/11/16 08:21:17;;;;;;;130.57;49.10;;;9.00;99.90;;;;;;5058041;28;20017;-77
2021/11/16 08:23:50;;;;;;;125.75;48.80;;;9.00;99.90;;;;;;5064225;28;20052;-77
2021/11/16 08:26:17;;;;;;;118.32;47.38;;;8.90;99.90;;;;;;5050739;28;20580;-77
2021/11/16 08:28:46;;;;;;;124.00;48.92;;;8.90;99.90;;;;;;5065114;28;20056;-78
2021/11/16 08:31:13;;;;;;;118.63;46.92;;;9.00;99.90;;;;;;5046756;28;20037;-78
2021/11/16 08:33:39;;;;;;;119.75;48.53;;;9.00;99.90;;;;;;5040948;28;20024;-77
2021/11/16 08:36:05;;;;;;;125.90;50.08;;;8.90;99.90;;;;;;5053063;28;20032;-79
2021/11/16 08:38:40;;;;;;;144.60;51.25;;;8.90;99.90;;;;;;5055242;28;20021;-77
2021/11/16 08:41:06;;;;;;;140.73;51.25;;;8.90;99.90;;;;;;5042335;28;20036;-77
2021/11/16 08:43:39;;;;;;;142.93;51.17;;;8.90;99.90;;;;;;5055533;28;20025;-77
2021/11/16 08:46:10;;;;;;;143.02;51.60;;;8.90;99.90;;;;;;5052081;28;20099;-77
2021/11/16 08:48:46;;;;;;;130.68;47.83;;;9.00;99.90;;;;;;5046550;28;20485;-76
2021/11/16 08:51:17;;;;;;;134.73;51.55;;;8.90;99.90;;;;;;5044361;28;20470;-77
2021/11/16 08:53:44;;;;;;;135.15;51.22;;;9.00;99.90;;;;;;5049384;28;20030;-78
2021/11/16 08:56:21;;;;;;;129.60;51.28;;;9.00;99.90;;;;;;5048117;28;20047;-77
2021/11/16 08:58:47;;;;;;;145.00;52.67;;;9.00;99.90;;;;;;5046692;28;20035;-78
2021/11/16 09:01:14;;;;;;;130.20;50.83;;;9.00;99.90;;;;;;5044061;28;20038;-78
2021/11/16 09:03:46;;;;;;;128.90;52.08;;;8.90;99.90;;;;;;5045852;28;20417;-77
2021/11/16 09:06:22;;;;;;;132.23;50.75;;;8.90;99.90;;;;;;5045043;28;20029;-78
2021/11/16 09:09:10;;;;;;;133.95;50.65;;;8.90;99.90;;;;;;5053143;28;20438;-79
2021/11/16 09:11:36;;;;;;;136.65;51.15;;;8.90;99.90;;;;;;5047960;28;20036;-80
2021/11/16 09:14:12;;;;;;;141.38;51.53;;;8.90;99.90;;;;;;5046342;28;20026;-76
2021/11/16 09:16:41;;;;;;;144.63;54.42;;;8.90;99.90;;;;;;5049098;28;20032;-78
2021/11/16 09:19:07;;;;;;;118.93;48.90;;;9.00;99.90;;;;;;5071254;28;20430;-77
2021/11/16 09:21:38;;;;;;;135.10;53.03;;;9.00;99.90;;;;;;5072737;28;20036;-78
2021/11/16 09:24:11;;;;;;;128.90;50.57;;;8.90;99.90;;;;;;5070779;28;20031;-77
2021/11/16 09:26:53;;;;;;;130.57;49.65;;;8.90;99.90;;;;;;5057014;28;20029;-77
2021/11/16 09:29:22;;;;;;;121.68;47.28;;;8.90;99.90;;;;;;5055223;28;20045;-77
2021/11/16 09:32:01;;;;;;;134.77;51.45;;;8.90;99.90;;;;;;5047837;28;20379;-77
2021/11/16 09:34:30;;;;;;;121.32;48.47;;;8.90;99.90;;;;;;5047419;28;20032;-77
2021/11/16 09:37:00;;;;;;;137.95;52.83;;;9.00;99.90;;;;;;5048878;28;20056;-77
2021/11/16 09:39:37;;;;;;;131.55;49.60;;;9.00;99.90;;;;;;5049883;28;20029;-77
2021/11/16 09:42:09;;;;;;;127.40;49.17;;;8.90;99.90;;;;;;5044791;28;20067;-78
2021/11/16 09:44:43;;;;;;;125.67;48.40;;;9.00;99.90;;;;;;5053956;28;20462;-77
2021/11/16 09:47:18;;;;;;;133.52;51.17;;;9.00;99.90;;;;;;5053978;28;20021;-77
2021/11/16 09:49:48;;;;;;;131.05;49.30;;;9.00;99.90;;;;;;5055053;28;20074;-79
2021/11/16 09:52:32;;;;;;;132.18;48.25;;;9.00;99.90;;;;;;5045053;28;20029;-77
2021/11/16 09:55:06;;;;;;;127.20;48.42;;;9.00;99.90;;;;;;5052033;28;20032;-79
2021/11/16 09:57:39;;;;;;;134.07;52.17;;;9.00;99.90;;;;;;5053712;28;20032;-77
2021/11/16 10:00:33;;;;;;;128.88;49.65;;;8.90;99.90;;;;;;5046505;28;20414;-76
2021/11/16 10:03:15;;;;;;;124.65;48.38;;;8.90;99.90;;;;;;5047033;28;20033;-77
2021/11/16 10:05:48;;;;;;;128.98;50.78;;;9.00;99.90;;;;;;5044019;28;20025;-77
2021/11/16 10:08:17;;;;;;;135.55;48.55;;;9.00;99.90;;;;;;5053197;28;20013;-76
2021/11/16 10:10:48;;;;;;;135.52;51.67;;;9.00;99.90;;;;;;5064068;28;20103;-77
2021/11/16 10:13:17;;;;;;;129.20;50.05;;;9.00;99.90;;;;;;5051598;28;20551;-77
2021/11/16 10:15:46;;;;;;;149.40;51.75;;;9.00;99.90;;;;;;5053598;28;20029;-76
2021/11/16 10:18:14;;;;;;;125.85;48.63;;;9.00;99.90;;;;;;5048851;28;20039;-76
2021/11/16 10:20:43;;;;;;;125.72;50.92;;;9.00;99.90;;;;;;5048548;28;20478;-76
2021/11/16 10:23:12;;;;;;;128.90;51.50;;;9.00;99.90;;;;;;5042974;28;20381;-76
2021/11/16 10:25:48;;;;;;;130.57;51.55;;;9.00;99.90;;;;;;5046543;28;20028;-77
2021/11/16 10:28:15;;;;;;;143.73;51.47;;;9.00;99.90;;;;;;5045001;28;20013;-77
2021/11/16 10:30:43;;;;;;;136.82;53.03;;;9.00;99.90;;;;;;5046063;28;20044;-78
2021/11/16 10:33:21;;;;;;;150.15;50.50;;;9.00;99.90;;;;;;5042615;28;20096;-77
2021/11/16 10:35:52;;;;;;;128.38;50.83;;;8.90;99.90;;;;;;5043677;28;20021;-79
2021/11/16 10:38:30;;;;;;;135.30;50.40;;;9.00;99.90;;;;;;5049642;28;20509;-79
2021/11/16 10:40:58;;;;;;;128.00;49.53;;;8.90;99.90;;;;;;5048446;28;20041;-79
2021/11/16 10:43:34;;;;;;;132.13;50.55;;;9.00;99.90;;;;;;5043371;28;20013;-79
2021/11/16 10:46:03;;;;;;;126.13;48.63;;;9.00;99.90;;;;;;5040910;28;20025;-79
2021/11/16 10:48:29;;;;;;;123.40;49.45;;;9.00;99.90;;;;;;5043791;28;20025;-79
2021/11/16 10:50:55;;;;;;;134.05;49.80;;;9.00;99.90;;;;;;5043358;28;20036;-80
2021/11/16 10:53:26;;;;;;;128.05;48.70;;;9.00;99.90;;;;;;5040653;28;20031;-80
2021/11/16 10:55:55;;;;;;;138.70;51.42;;;9.10;99.90;;;;;;5039654;28;20524;-79
2021/11/16 10:58:27;;;;;;;120.03;46.75;;;9.00;99.90;;;;;;5047184;28;20052;-78
2021/11/16 11:01:00;;;;;;;120.47;47.97;;;9.00;99.90;;;;;;5047814;28;20045;-77
2021/11/16 11:03:32;;;;;;;120.85;46.72;;;9.10;99.90;;;;;;5043878;28;20013;-78
2021/11/16 11:06:12;;;;;;;119.47;45.42;;;9.00;99.90;;;;;;5043564;28;20039;-77
2021/11/16 11:08:45;;;;;;;115.65;44.67;;;9.00;99.90;;;;;;5044604;28;20405;-77
2021/11/16 11:11:39;;;;;;;122.28;49.03;;;9.00;99.90;;;;;;5043801;28;20457;-78
2021/11/16 11:14:05;;;;;;;123.05;49.60;;;9.00;99.90;;;;;;5044113;28;20037;-77
2021/11/16 11:16:39;;;;;;;123.78;45.10;;;8.90;99.90;;;;;;5043790;28;20534;-78
2021/11/16 11:19:10;;;;;;;117.57;46.85;;;9.00;99.90;;;;;;5041107;28;20034;-78
2021/11/16 11:22:22;;;;;;;122.07;47.13;;;9.00;99.90;;;;;;5041087;28;20022;-78
2021/11/16 11:27:32;;;;;;;122.85;47.03;;;9.00;99.90;;;;;;5059059;28;20120;-77
2021/11/16 11:29:59;;;;;;;125.32;48.20;;;9.10;99.90;;;;;;5069434;28;20044;-78
2021/11/16 11:32:27;;;;;;;109.15;45.60;;;9.10;99.90;;;;;;5044819;28;20018;-77
2021/11/16 11:35:02;;;;;;;116.05;45.55;;;9.20;99.90;;;;;;5047397;28;20115;-77
2021/11/16 11:37:36;;;;;;;114.95;44.50;;;9.10;99.90;;;;;;5045455;28;20494;-78
2021/11/16 11:40:18;;;;;;;112.75;45.95;;;9.20;99.90;;;;;;5043456;28;20094;-78
2021/11/16 11:42:44;;;;;;;106.05;42.35;;;9.20;99.90;;;;;;5053764;28;20031;-78
2021/11/16 11:45:21;;;;;;;111.38;43.22;;;9.20;99.90;;;;;;5054879;28;20380;-78
2021/11/16 11:48:01;;;;;;;111.93;44.22;;;9.20;99.90;;;;;;5041786;28;20025;-78
2021/11/16 11:50:43;;;;;;;112.95;43.67;;;9.20;99.90;;;;;;5041511;28;20474;-78
2021/11/16 11:53:16;;;;;;;99.47;39.67;;;9.20;99.90;;;;;;5043569;28;20032;-77
2021/11/16 11:55:45;;;;;;;102.68;39.90;;;9.20;99.90;;;;;;5048994;28;20295;-79
2021/11/16 11:58:11;;;;;;;100.85;39.42;;;9.20;99.90;;;;;;5045740;28;20020;-77
2021/11/16 12:00:39;;;;;;;108.00;39.47;;;9.10;99.90;;;;;;5055338;28;20052;-77
2021/11/16 12:03:07;;;;;;;100.80;41.33;;;9.00;99.90;;;;;;5039067;28;20045;-78
2021/11/16 12:05:35;;;;;;;112.50;44.60;;;9.10;99.90;;;;;;5048360;28;20192;-79
2021/11/16 12:08:01;;;;;;;108.90;43.85;;;9.20;99.90;;;;;;5052386;28;20086;-77
2021/11/16 12:10:27;;;;;;;103.80;42.45;;;9.20;99.90;;;;;;5053238;28;20532;-78
2021/11/16 12:12:55;;;;;;;100.28;40.33;;;9.10;99.90;;;;;;5055716;28;20021;-77
2021/11/16 12:15:28;;;;;;;102.28;44.00;;;9.10;99.90;;;;;;5049743;28;20017;-77
2021/11/16 12:17:58;;;;;;;101.28;38.92;;;9.10;99.90;;;;;;5052070;28;20506;-77
2021/11/16 12:20:34;;;;;;;99.93;42.05;;;9.00;99.90;;;;;;5051080;28;20042;-76
2021/11/16 12:23:01;;;;;;;93.25;38.92;;;9.10;99.90;;;;;;5044603;28;20657;-77
2021/11/16 12:25:26;;;;;;;96.93;40.88;;;9.10;99.90;;;;;;5048343;28;20021;-78
2021/11/16 12:27:52;;;;;;;89.22;36.90;;;9.10;99.90;;;;;;5050233;28;20028;-78
2021/11/16 12:30:34;;;;;;;103.07;40.95;;;9.10;99.90;;;;;;5045757;28;20401;-76
2021/11/16 12:33:00;;;;;;;97.85;39.53;;;9.10;99.90;;;;;;5047275;28;21907;-78
2021/11/16 12:35:26;;;;;;;108.15;42.10;;;9.10;99.90;;;;;;5048416;28;20017;-77
2021/11/16 12:37:54;;;;;;;90.45;37.95;;;9.10;99.90;;;;;;5051338;28;20490;-76
2021/11/16 12:40:44;;;;;;;92.10;36.95;;;9.10;99.90;;;;;;5050325;28;20412;-76
2021/11/16 12:43:12;;;;;;;83.05;34.50;;;9.10;99.90;;;;;;5050786;28;20037;-75
2021/11/16 12:45:49;;;;;;;78.95;33.40;;;9.10;99.90;;;;;;5050596;28;20033;-76
2021/11/16 12:48:17;;;;;;;96.22;35.42;;;9.00;99.90;;;;;;5046796;28;20103;-77
2021/11/16 12:51:09;;;;;;;76.53;32.13;;;9.00;99.90;;;;;;5055623;28;20025;-77
2021/11/16 12:53:56;;;;;;;82.35;35.38;;;9.00;99.90;;;;;;5047641;28;20800;-77
2021/11/16 12:56:24;;;;;;;72.55;34.00;;;9.00;99.90;;;;;;5050843;28;20044;-77
2021/11/16 12:58:55;;;;;;;86.90;35.38;;;9.00;99.90;;;;;;5055671;28;20037;-76
2021/11/16 13:01:40;;;;;;;85.40;36.70;;;9.00;99.90;;;;;;5053554;28;20061;-77
2021/11/16 13:04:07;;;;;;;79.63;34.65;;;9.00;99.90;;;;;;5054601;28;20073;-77